createdAt,value
2018-05-17T00:00:57.906Z,80.07
2018-05-17T00:01:57.846Z,79.39
2018-05-17T00:02:57.783Z,79.11
2018-05-17T00:03:57.723Z,79.11
2018-05-17T00:04:57.660Z,79.39
2018-05-17T00:05:57.599Z,79.30
2018-05-17T00:06:57.542Z,79.30
2018-05-17T00:07:57.473Z,79.21
2018-05-17T00:08:57.418Z,79.21
2018-05-17T00:09:57.361Z,79.49
2018-05-17T00:10:57.323Z,79.01
2018-05-17T00:11:57.360Z,79.11
2018-05-17T00:12:57.171Z,79.30
2018-05-17T00:13:57.112Z,79.39
2018-05-17T00:14:57.050Z,79.21
2018-05-17T00:15:56.989Z,79.30
2018-05-17T00:16:56.928Z,78.92
2018-05-17T00:17:56.868Z,79.01
2018-05-17T00:18:56.809Z,79.01
2018-05-17T00:19:56.739Z,79.49
2018-05-17T00:20:56.683Z,79.59
2018-05-17T00:21:56.621Z,79.59
2018-05-17T00:22:56.562Z,79.49
2018-05-17T00:23:56.499Z,79.49
2018-05-17T00:24:56.442Z,79.68
2018-05-17T00:25:56.374Z,79.49
2018-05-17T00:26:56.319Z,79.59
2018-05-17T00:27:56.255Z,79.49
2018-05-17T00:28:56.196Z,79.30
2018-05-17T00:29:56.141Z,79.07
2018-05-17T00:30:56.075Z,79.93
2018-05-17T00:31:56.011Z,79.93
2018-05-17T00:32:55.949Z,79.36
2018-05-17T00:33:55.890Z,79.36
2018-05-17T00:34:55.832Z,80.12
2018-05-17T00:35:55.768Z,79.83
2018-05-17T00:36:55.711Z,80.12
2018-05-17T00:37:55.647Z,79.83
2018-05-17T00:38:55.586Z,79.93
2018-05-17T00:39:55.530Z,80.41
2018-05-17T00:40:55.457Z,79.36
2018-05-17T00:41:55.403Z,80.32
2018-05-17T00:42:55.344Z,79.55
2018-05-17T00:43:55.282Z,79.36
2018-05-17T00:44:55.218Z,79.74
2018-05-17T00:45:55.172Z,80.22
2018-05-17T00:46:55.093Z,79.74
2018-05-17T00:47:55.037Z,79.74
2018-05-17T00:48:54.974Z,79.26
2018-05-17T00:49:54.910Z,79.26
2018-05-17T00:50:54.848Z,79.45
2018-05-17T00:51:54.785Z,80.22
2018-05-17T00:52:54.729Z,79.64
2018-05-17T00:53:54.673Z,79.64
2018-05-17T00:54:54.605Z,80.12
2018-05-17T00:55:54.545Z,79.64
2018-05-17T00:56:54.484Z,79.83
2018-05-17T00:57:54.421Z,79.93
2018-05-17T00:58:54.356Z,79.74
2018-05-17T00:59:54.301Z,79.83
2018-05-17T01:00:54.237Z,79.83
2018-05-17T01:01:54.179Z,79.83
2018-05-17T01:02:54.118Z,79.93
2018-05-17T01:03:54.054Z,79.55
2018-05-17T01:04:53.992Z,79.74
2018-05-17T01:05:53.934Z,79.74
2018-05-17T01:06:53.878Z,80.22
2018-05-17T01:07:53.808Z,79.83
2018-05-17T01:08:53.748Z,79.74
2018-05-17T01:09:53.686Z,79.74
2018-05-17T01:10:53.629Z,79.99
2018-05-17T01:11:53.570Z,80.47
2018-05-17T01:12:53.513Z,80.41
2018-05-17T01:13:53.442Z,80.27
2018-05-17T01:14:53.384Z,80.18
2018-05-17T01:15:53.319Z,80.47
2018-05-17T01:16:53.259Z,80.94
2018-05-17T01:17:53.198Z,80.94
2018-05-17T01:18:53.134Z,80.76
2018-05-17T01:19:53.074Z,80.47
2018-05-17T01:20:53.013Z,80.94
2018-05-17T01:21:52.949Z,81.23
2018-05-17T01:22:52.889Z,81.04
2018-05-17T01:23:52.825Z,81.13
2018-05-17T01:24:52.790Z,81.04
2018-05-17T01:25:52.706Z,81.13
2018-05-17T01:26:52.646Z,81.43
2018-05-17T01:27:52.583Z,80.94
2018-05-17T01:28:52.521Z,81.04
2018-05-17T01:29:52.467Z,81.04
2018-05-17T01:30:52.399Z,81.04
2018-05-17T01:31:52.346Z,81.04
2018-05-17T01:32:52.271Z,80.85
2018-05-17T01:33:52.218Z,81.04
2018-05-17T01:34:52.150Z,81.04
2018-05-17T01:35:52.088Z,81.13
2018-05-17T01:36:52.032Z,81.04
2018-05-17T01:37:51.969Z,81.23
2018-05-17T01:38:51.903Z,81.23
2018-05-17T01:39:51.845Z,81.13
2018-05-17T01:40:51.782Z,81.52
2018-05-17T01:41:51.721Z,81.23
2018-05-17T01:42:51.658Z,81.23
2018-05-17T01:43:51.601Z,81.23
2018-05-17T01:44:51.533Z,80.85
2018-05-17T01:45:51.473Z,81.52
2018-05-17T01:46:51.418Z,81.33
2018-05-17T01:47:51.350Z,81.71
2018-05-17T01:48:51.291Z,81.43
2018-05-17T01:49:51.229Z,81.33
2018-05-17T01:50:51.167Z,81.62
2018-05-17T01:51:51.111Z,81.52
2018-05-17T01:52:51.042Z,81.52
2018-05-17T01:53:50.983Z,81.62
2018-05-17T01:54:50.916Z,81.71
2018-05-17T01:55:50.857Z,81.71
2018-05-17T01:56:50.792Z,81.81
2018-05-17T01:57:50.736Z,81.33
2018-05-17T01:58:50.678Z,81.52
2018-05-17T01:59:50.610Z,81.33
2018-05-17T02:00:50.547Z,82.00
2018-05-17T02:01:50.489Z,82.00
2018-05-17T02:02:50.428Z,81.62
2018-05-17T02:03:50.360Z,81.62
2018-05-17T02:04:50.296Z,81.81
2018-05-17T02:05:50.240Z,81.86
2018-05-17T02:06:50.176Z,81.48
2018-05-17T02:07:50.130Z,81.43
2018-05-17T02:08:50.053Z,81.86
2018-05-17T02:09:49.989Z,81.77
2018-05-17T02:10:49.933Z,81.57
2018-05-17T02:11:49.870Z,81.67
2018-05-17T02:12:49.805Z,82.34
2018-05-17T02:13:49.741Z,82.63
2018-05-17T02:14:49.680Z,82.43
2018-05-17T02:15:49.616Z,82.34
2018-05-17T02:16:49.553Z,81.67
2018-05-17T02:17:49.506Z,82.06
2018-05-17T02:18:49.435Z,82.43
2018-05-17T02:19:49.372Z,82.53
2018-05-17T02:20:49.313Z,81.96
2018-05-17T02:21:49.244Z,82.06
2018-05-17T02:22:49.188Z,82.53
2018-05-17T02:23:49.121Z,82.53
2018-05-17T02:24:49.060Z,82.24
2018-05-17T02:25:48.996Z,82.63
2018-05-17T02:26:48.934Z,82.24
2018-05-17T02:27:48.873Z,82.24
2018-05-17T02:28:48.812Z,82.24
2018-05-17T02:29:48.749Z,82.15
2018-05-17T02:30:48.686Z,82.15
2018-05-17T02:31:48.625Z,82.43
2018-05-17T02:32:48.569Z,82.53
2018-05-17T02:33:48.501Z,82.53
2018-05-17T02:34:48.439Z,82.40
2018-05-17T02:35:48.374Z,82.24
2018-05-17T02:36:48.312Z,82.40
2018-05-17T02:37:48.253Z,82.78
2018-05-17T02:38:48.194Z,83.16
2018-05-17T02:39:48.127Z,83.16
2018-05-17T02:40:48.063Z,82.87
2018-05-17T02:41:48.004Z,82.87
2018-05-17T02:42:47.942Z,82.34
2018-05-17T02:43:47.881Z,82.53
2018-05-17T02:44:47.817Z,82.63
2018-05-17T02:45:47.753Z,82.92
2018-05-17T02:46:47.715Z,82.40
2018-05-17T02:47:47.629Z,82.78
2018-05-17T02:48:47.562Z,82.87
2018-05-17T02:49:47.515Z,82.87
2018-05-17T02:50:47.443Z,83.06
2018-05-17T02:51:47.377Z,83.06
2018-05-17T02:52:47.327Z,83.16
2018-05-17T02:53:47.252Z,82.97
2018-05-17T02:54:47.192Z,83.06
2018-05-17T02:55:47.130Z,82.87
2018-05-17T02:56:47.075Z,82.82
2018-05-17T02:57:47.002Z,82.30
2018-05-17T02:58:46.945Z,83.16
2018-05-17T02:59:46.881Z,82.87
2018-05-17T03:00:46.815Z,82.97
2018-05-17T03:01:46.761Z,83.45
2018-05-17T03:02:46.696Z,83.16
2018-05-17T03:03:46.633Z,83.16
2018-05-17T03:04:46.568Z,82.97
2018-05-17T03:05:46.512Z,82.97
2018-05-17T03:06:46.444Z,83.06
2018-05-17T03:07:46.382Z,83.36
2018-05-17T03:08:46.324Z,83.26
2018-05-17T03:09:46.258Z,83.16
2018-05-17T03:10:46.197Z,82.97
2018-05-17T03:11:46.132Z,83.31
2018-05-17T03:12:46.078Z,82.93
2018-05-17T03:13:46.010Z,83.40
2018-05-17T03:14:45.947Z,83.31
2018-05-17T03:15:45.883Z,83.22
2018-05-17T03:16:45.825Z,82.64
2018-05-17T03:17:46.489Z,82.93
2018-05-17T03:18:45.694Z,83.12
2018-05-17T03:19:45.628Z,82.93
2018-05-17T03:20:45.569Z,83.22
2018-05-17T03:21:45.512Z,83.12
2018-05-17T03:22:45.445Z,83.22
2018-05-17T03:23:45.384Z,82.93
2018-05-17T03:24:45.322Z,83.12
2018-05-17T03:25:45.268Z,82.83
2018-05-17T03:26:45.198Z,83.12
2018-05-17T03:27:45.130Z,82.93
2018-05-17T03:28:45.071Z,82.83
2018-05-17T03:29:45.011Z,82.35
2018-05-17T03:30:44.946Z,82.74
2018-05-17T03:31:44.879Z,82.64
2018-05-17T03:32:44.818Z,82.17
2018-05-17T03:33:44.756Z,82.54
2018-05-17T03:34:44.694Z,82.26
2018-05-17T03:35:44.632Z,82.35
2018-05-17T03:36:44.576Z,82.83
2018-05-17T03:37:44.503Z,82.83
2018-05-17T03:38:44.443Z,82.64
2018-05-17T03:39:44.379Z,82.54
2018-05-17T03:40:44.316Z,82.35
2018-05-17T03:41:44.252Z,81.59
2018-05-17T03:42:44.195Z,81.68
2018-05-17T03:43:44.141Z,81.78
2018-05-17T03:44:44.064Z,81.30
2018-05-17T03:45:44.004Z,81.59
2018-05-17T03:46:43.945Z,81.59
2018-05-17T03:47:43.881Z,81.49
2018-05-17T03:48:43.818Z,81.49
2018-05-17T03:49:43.754Z,81.59
2018-05-17T03:50:43.688Z,81.49
2018-05-17T03:51:43.624Z,81.40
2018-05-17T03:52:43.571Z,81.49
2018-05-17T03:53:43.503Z,81.88
2018-05-17T03:54:43.446Z,81.30
2018-05-17T03:55:43.379Z,81.02
2018-05-17T03:56:43.316Z,80.92
2018-05-17T03:57:43.254Z,80.92
2018-05-17T03:58:43.189Z,81.11
2018-05-17T03:59:43.131Z,80.35
2018-05-17T04:00:43.063Z,81.21
2018-05-17T04:01:43.001Z,81.11
2018-05-17T04:02:42.947Z,80.35
2018-05-17T04:03:42.878Z,81.21
2018-05-17T04:04:42.822Z,81.30
2018-05-17T04:05:42.752Z,81.21
2018-05-17T04:06:42.690Z,80.54
2018-05-17T04:07:42.627Z,81.30
2018-05-17T04:08:42.565Z,81.21
2018-05-17T04:09:42.505Z,81.30
2018-05-17T04:10:42.439Z,81.40
2018-05-17T04:11:42.375Z,81.02
2018-05-17T04:12:42.312Z,81.30
2018-05-17T04:13:42.251Z,80.44
2018-05-17T04:14:42.191Z,80.44
2018-05-17T04:15:42.128Z,80.44
2018-05-17T04:16:42.063Z,80.35
2018-05-17T04:17:42.004Z,80.44
2018-05-17T04:18:41.940Z,80.73
2018-05-17T04:19:41.877Z,80.44
2018-05-17T04:20:41.815Z,80.44
2018-05-17T04:21:50.400Z,81.02
2018-05-17T04:23:36.089Z,80.44
2018-05-17T04:24:35.949Z,80.73
2018-05-17T04:26:30.241Z,81.02
2018-05-17T04:27:30.145Z,79.96
2018-05-17T04:29:23.468Z,80.35
2018-05-17T04:30:30.998Z,79.96
2018-05-17T04:32:16.681Z,79.87
2018-05-17T04:33:16.568Z,80.25
2018-05-17T04:35:10.867Z,80.25
2018-05-17T04:36:10.766Z,80.25
2018-05-17T04:38:04.084Z,79.96
2018-05-17T04:39:03.973Z,80.35
2018-05-17T04:40:58.279Z,80.06
2018-05-17T04:41:58.178Z,79.96
2018-05-17T04:43:53.078Z,80.06
2018-05-17T04:44:52.373Z,80.16
2018-05-17T04:46:46.667Z,79.96
2018-05-17T04:47:46.572Z,80.06
2018-05-17T04:49:40.877Z,80.35
2018-05-17T04:50:40.770Z,80.06
2018-05-17T04:52:35.064Z,80.25
2018-05-17T04:53:34.974Z,80.29
2018-05-17T04:55:29.265Z,80.29
2018-05-17T04:56:29.167Z,80.29
2018-05-17T04:58:23.472Z,80.10
2018-05-17T04:59:23.363Z,79.52
2018-05-17T05:01:17.657Z,79.81
2018-05-17T05:02:17.567Z,79.62
2018-05-17T05:04:11.874Z,79.43
2018-05-17T05:05:11.766Z,79.52
2018-05-17T05:07:06.068Z,79.75
2018-05-17T05:08:05.970Z,79.57
2018-05-17T05:10:00.262Z,79.18
2018-05-17T05:11:00.169Z,78.84
2018-05-17T05:12:54.074Z,79.47
2018-05-17T05:13:53.378Z,79.37
2018-05-17T05:15:47.686Z,79.18
2018-05-17T05:16:47.578Z,79.37
2018-05-17T05:18:41.986Z,79.85
2018-05-17T05:19:41.779Z,79.75
2018-05-17T05:21:36.092Z,79.85
2018-05-17T05:22:35.995Z,79.75
2018-05-17T05:24:30.301Z,79.75
2018-05-17T05:25:30.234Z,79.95
2018-05-17T05:27:23.512Z,80.43
2018-05-17T05:28:23.450Z,80.52
2018-05-17T05:29:23.356Z,80.90
2018-05-17T05:30:23.297Z,81.10
2018-05-17T05:31:23.233Z,80.90
2018-05-17T05:32:23.167Z,80.33
2018-05-17T05:33:23.227Z,81.38
2018-05-17T05:34:23.048Z,81.20
2018-05-17T05:35:22.983Z,80.52
2018-05-17T05:36:22.924Z,80.52
2018-05-17T05:37:22.862Z,80.43
2018-05-17T05:38:22.804Z,80.66
2018-05-17T05:39:22.742Z,80.85
2018-05-17T05:40:22.676Z,80.18
2018-05-17T05:41:22.612Z,80.94
2018-05-17T05:42:22.552Z,80.94
2018-05-17T05:43:22.588Z,81.04
2018-05-17T05:44:22.432Z,80.37
2018-05-17T05:45:22.371Z,80.94
2018-05-17T05:46:22.315Z,80.08
2018-05-17T05:47:22.244Z,80.18
2018-05-17T05:48:22.180Z,81.13
2018-05-17T05:49:22.184Z,80.41
2018-05-17T05:50:22.065Z,80.27
2018-05-17T05:51:22.000Z,80.51
2018-05-17T05:52:21.938Z,80.51
2018-05-17T05:53:21.873Z,80.22
2018-05-17T05:54:21.814Z,80.41
2018-05-17T05:55:21.753Z,80.41
2018-05-17T05:56:21.691Z,80.12
2018-05-17T05:57:21.631Z,80.51
2018-05-17T05:58:21.571Z,80.12
2018-05-17T05:59:21.509Z,80.41
2018-05-17T06:00:21.448Z,80.32
2018-05-17T06:01:21.383Z,80.03
2018-05-17T06:02:21.350Z,79.83
2018-05-17T06:03:21.263Z,79.64
2018-05-17T06:04:21.201Z,79.59
2018-05-17T06:05:21.142Z,79.93
2018-05-17T06:06:21.082Z,79.97
2018-05-17T06:07:21.018Z,79.39
2018-05-17T06:08:21.058Z,79.68
2018-05-17T06:09:20.895Z,79.01
2018-05-17T06:10:20.835Z,78.57
2018-05-17T06:11:20.776Z,78.77
2018-05-17T06:12:20.721Z,78.47
2018-05-17T06:13:20.651Z,78.28
2018-05-17T06:14:20.590Z,78.38
2018-05-17T06:15:20.531Z,78.38
2018-05-17T06:16:20.469Z,78.67
2018-05-17T06:17:20.444Z,78.53
2018-05-17T06:18:20.350Z,78.44
2018-05-17T06:19:20.286Z,79.11
2018-05-17T06:20:20.228Z,78.77
2018-05-17T06:21:20.165Z,78.28
2018-05-17T06:22:20.108Z,78.96
2018-05-17T06:23:20.046Z,78.77
2018-05-17T06:24:19.985Z,77.80
2018-05-17T06:25:19.924Z,78.13
2018-05-17T06:26:19.862Z,77.84
2018-05-17T06:27:19.803Z,78.28
2018-05-17T06:28:19.740Z,77.90
2018-05-17T06:29:19.697Z,78.00
2018-05-17T06:30:19.752Z,78.19
2018-05-17T06:31:19.560Z,78.00
2018-05-17T06:32:19.496Z,78.19
2018-05-17T06:33:19.437Z,78.47
2018-05-17T06:34:19.382Z,78.77
2018-05-17T06:35:19.316Z,78.57
2018-05-17T06:36:19.258Z,78.53
2018-05-17T06:37:19.195Z,78.63
2018-05-17T06:38:19.143Z,78.44
2018-05-17T06:39:19.076Z,78.53
2018-05-17T06:40:19.014Z,78.72
2018-05-17T06:41:18.955Z,79.11
2018-05-17T06:42:18.910Z,78.63
2018-05-17T06:43:18.832Z,78.53
2018-05-17T06:44:18.771Z,78.63
2018-05-17T06:45:18.712Z,78.25
2018-05-17T06:46:18.653Z,78.92
2018-05-17T06:47:19.098Z,78.67
2018-05-17T06:48:19.096Z,78.28
2018-05-17T06:49:18.471Z,77.56
2018-05-17T06:50:18.411Z,77.26
2018-05-17T06:51:18.350Z,77.01
2018-05-17T06:52:18.283Z,76.54
2018-05-17T06:53:18.226Z,76.06
2018-05-17T06:54:18.172Z,76.00
2018-05-17T06:55:18.106Z,76.09
2018-05-17T06:56:18.051Z,75.81
2018-05-17T06:57:17.991Z,76.00
2018-05-17T06:58:17.923Z,75.27
2018-05-17T06:59:17.867Z,74.69
2018-05-17T07:00:17.808Z,74.21
2018-05-17T07:01:17.758Z,75.17
2018-05-17T07:02:17.689Z,74.50
2018-05-17T07:03:17.623Z,74.02
2018-05-17T07:04:17.562Z,73.67
2018-05-17T07:05:17.513Z,73.92
2018-05-17T07:06:17.462Z,73.63
2018-05-17T07:07:25.041Z,73.44
2018-05-17T07:09:10.711Z,73.73
2018-05-17T07:10:10.610Z,73.79
2018-05-17T07:12:04.917Z,73.25
2018-05-17T07:13:04.821Z,73.25
2018-05-17T07:14:04.771Z,73.54
2018-05-17T07:15:04.717Z,73.44
2018-05-17T07:16:04.648Z,72.67
2018-05-17T07:17:04.604Z,73.06
2018-05-17T07:18:04.676Z,72.52
2018-05-17T07:19:04.473Z,72.61
2018-05-17T07:20:04.412Z,71.84
2018-05-17T07:21:04.355Z,72.19
2018-05-17T07:22:04.292Z,72.48
2018-05-17T07:23:04.236Z,73.60
2018-05-17T07:24:04.263Z,73.69
2018-05-17T07:25:04.117Z,73.37
2018-05-17T07:26:04.060Z,74.04
2018-05-17T07:27:04.043Z,74.52
2018-05-17T07:28:03.947Z,74.62
2018-05-17T07:29:03.884Z,74.52
2018-05-17T07:30:03.823Z,73.94
2018-05-17T07:31:03.766Z,74.43
2018-05-17T07:32:03.705Z,74.81
2018-05-17T07:33:03.646Z,74.81
2018-05-17T07:34:03.586Z,74.81
2018-05-17T07:35:03.534Z,74.23
2018-05-17T07:36:03.470Z,74.23
2018-05-17T07:37:03.410Z,73.88
2018-05-17T07:38:03.350Z,73.41
2018-05-17T07:39:03.290Z,72.73
2018-05-17T07:40:03.238Z,72.34
2018-05-17T07:41:03.174Z,72.29
2018-05-17T07:42:03.114Z,72.09
2018-05-17T07:43:03.057Z,72.16
2018-05-17T07:44:03.001Z,72.58
2018-05-17T07:45:02.941Z,72.19
2018-05-17T07:46:02.875Z,72.13
2018-05-17T07:47:02.819Z,71.55
2018-05-17T07:48:02.760Z,71.26
2018-05-17T07:49:02.704Z,71.14
2018-05-17T07:50:02.666Z,71.33
2018-05-17T07:51:02.580Z,71.42
2018-05-17T07:52:02.539Z,72.00
2018-05-17T07:53:02.465Z,71.91
2018-05-17T07:54:02.404Z,71.26
2018-05-17T07:55:02.347Z,71.08
2018-05-17T07:56:02.287Z,70.11
2018-05-17T07:57:02.229Z,70.53
2018-05-17T07:58:02.172Z,70.24
2018-05-17T07:59:02.114Z,70.15
2018-05-17T08:00:02.053Z,69.82
2018-05-17T08:01:01.995Z,69.92
2018-05-17T08:02:01.943Z,70.11
2018-05-17T08:03:01.880Z,70.59
2018-05-17T08:04:01.820Z,70.75
2018-05-17T08:05:01.758Z,70.65
2018-05-17T08:06:01.699Z,70.65
2018-05-17T08:07:01.644Z,70.84
2018-05-17T08:08:01.601Z,70.30
2018-05-17T08:09:01.530Z,70.30
2018-05-17T08:10:01.470Z,70.40
2018-05-17T08:11:01.405Z,69.38
2018-05-17T08:12:01.348Z,69.28
2018-05-17T08:13:01.294Z,69.57
2018-05-17T08:14:01.236Z,69.67
2018-05-17T08:15:01.174Z,69.38
2018-05-17T08:16:01.114Z,69.34
2018-05-17T08:17:01.058Z,69.63
2018-05-17T08:18:01.005Z,69.57
2018-05-17T08:19:00.944Z,69.82
2018-05-17T08:20:00.883Z,69.47
2018-05-17T08:21:00.826Z,68.80
2018-05-17T08:22:00.766Z,67.68
2018-05-17T08:23:00.705Z,68.35
2018-05-17T08:24:00.646Z,67.97
2018-05-17T08:25:00.590Z,68.03
2018-05-17T08:26:00.534Z,68.06
2018-05-17T08:27:00.477Z,68.26
2018-05-17T08:28:00.418Z,68.70
2018-05-17T08:29:00.418Z,68.32
2018-05-17T08:30:00.300Z,68.70
2018-05-17T08:31:00.257Z,68.51
2018-05-17T08:32:00.187Z,67.65
2018-05-17T08:33:00.129Z,67.29
2018-05-17T08:34:00.070Z,67.39
2018-05-17T08:35:00.012Z,67.68
2018-05-17T08:35:59.953Z,67.00
2018-05-17T08:36:59.896Z,67.10
2018-05-17T08:37:59.838Z,66.91
2018-05-17T08:38:59.788Z,67.55
2018-05-17T08:39:59.725Z,67.10
2018-05-17T08:40:59.675Z,67.10
2018-05-17T08:41:59.609Z,66.46
2018-05-17T08:42:59.552Z,65.88
2018-05-17T08:43:59.491Z,65.63
2018-05-17T08:44:59.436Z,65.43
2018-05-17T08:45:59.379Z,65.50
2018-05-17T08:46:59.319Z,65.33
2018-05-17T08:47:59.259Z,65.14
2018-05-17T08:48:59.204Z,65.40
2018-05-17T08:49:59.146Z,66.33
2018-05-17T08:50:59.091Z,65.85
2018-05-17T08:51:59.035Z,65.85
2018-05-17T08:52:58.986Z,65.72
2018-05-17T08:53:58.918Z,66.10
2018-05-17T08:54:58.860Z,66.58
2018-05-17T08:55:58.808Z,67.03
2018-05-17T08:56:58.748Z,67.32
2018-05-17T08:57:58.685Z,66.97
2018-05-17T08:58:58.630Z,66.39
2018-05-17T08:59:58.572Z,65.81
2018-05-17T09:00:58.518Z,66.58
2018-05-17T09:01:58.456Z,66.39
2018-05-17T09:02:58.399Z,65.75
2018-05-17T09:03:58.343Z,65.75
2018-05-17T09:04:58.282Z,66.01
2018-05-17T09:05:58.225Z,65.53
2018-05-17T09:06:59.015Z,65.72
2018-05-17T09:07:58.108Z,65.91
2018-05-17T09:08:58.051Z,65.81
2018-05-17T09:09:57.991Z,66.04
2018-05-17T09:10:57.936Z,65.37
2018-05-17T09:11:57.881Z,65.01
2018-05-17T09:12:57.825Z,64.92
2018-05-17T09:13:57.764Z,64.82
2018-05-17T09:14:57.704Z,64.82
2018-05-17T09:15:57.652Z,64.63
2018-05-17T09:16:57.589Z,65.17
2018-05-17T09:17:57.532Z,65.53
2018-05-17T09:18:57.472Z,65.30
2018-05-17T09:19:57.418Z,65.91
2018-05-17T09:20:57.364Z,65.33
2018-05-17T09:21:57.301Z,65.08
2018-05-17T09:22:57.249Z,64.21
2018-05-17T09:23:57.191Z,64.34
2018-05-17T09:24:57.130Z,63.76
2018-05-17T09:25:57.069Z,64.40
2018-05-17T09:26:57.013Z,65.27
2018-05-17T09:27:56.959Z,64.98
2018-05-17T09:28:56.900Z,65.17
2018-05-17T09:29:56.840Z,63.79
2018-05-17T09:30:56.787Z,63.79
2018-05-17T09:31:56.729Z,63.70
2018-05-17T09:32:56.667Z,63.95
2018-05-17T09:33:56.610Z,63.95
2018-05-17T09:34:56.554Z,64.40
2018-05-17T09:35:56.504Z,64.40
2018-05-17T09:36:56.446Z,64.79
2018-05-17T09:37:56.383Z,64.95
2018-05-17T09:38:56.328Z,64.95
2018-05-17T09:39:56.268Z,65.17
2018-05-17T09:40:56.290Z,64.31
2018-05-17T09:41:56.153Z,64.05
2018-05-17T09:42:56.098Z,63.95
2018-05-17T09:43:56.041Z,64.02
2018-05-17T09:44:56.004Z,63.82
2018-05-17T09:45:55.931Z,64.31
2018-05-17T09:46:55.866Z,63.57
2018-05-17T09:47:55.809Z,63.12
2018-05-17T09:48:55.754Z,62.18
2018-05-17T09:49:55.697Z,62.09
2018-05-17T09:50:55.646Z,61.13
2018-05-17T09:51:55.578Z,60.93
2018-05-17T09:52:55.531Z,61.71
2018-05-17T09:53:55.466Z,61.68
2018-05-17T09:54:55.490Z,62.45
2018-05-17T09:55:55.355Z,62.06
2018-05-17T09:56:55.297Z,62.15
2018-05-17T09:57:55.243Z,62.60
2018-05-17T09:58:55.189Z,63.54
2018-05-17T09:59:55.127Z,63.06
2018-05-17T10:00:55.075Z,63.89
2018-05-17T10:01:55.015Z,63.70
2018-05-17T10:02:54.958Z,63.79
2018-05-17T10:03:54.903Z,64.28
2018-05-17T10:04:54.842Z,64.18
2018-05-17T10:05:54.786Z,64.08
2018-05-17T10:06:54.734Z,63.89
2018-05-17T10:07:54.684Z,63.79
2018-05-17T10:08:54.638Z,63.60
2018-05-17T10:09:54.598Z,63.60
2018-05-17T10:10:54.504Z,63.34
2018-05-17T10:11:54.488Z,63.12
2018-05-17T10:12:54.387Z,63.51
2018-05-17T10:13:54.332Z,63.54
2018-05-17T10:14:54.274Z,63.25
2018-05-17T10:15:54.219Z,62.32
2018-05-17T10:16:54.166Z,61.38
2018-05-17T10:17:54.120Z,60.90
2018-05-17T10:18:54.043Z,61.00
2018-05-17T10:19:53.987Z,61.55
2018-05-17T10:20:53.933Z,62.29
2018-05-17T10:21:53.970Z,62.57
2018-05-17T10:22:53.815Z,62.57
2018-05-17T10:23:53.759Z,62.48
2018-05-17T10:24:53.713Z,62.48
2018-05-17T10:25:53.646Z,61.90
2018-05-17T10:26:53.595Z,62.41
2018-05-17T10:27:53.534Z,62.41
2018-05-17T10:28:53.474Z,61.83
2018-05-17T10:29:53.424Z,61.74
2018-05-17T10:30:53.362Z,62.03
2018-05-17T10:31:53.303Z,62.09
2018-05-17T10:32:53.245Z,62.19
2018-05-17T10:33:53.188Z,62.38
2018-05-17T10:34:53.137Z,62.74
2018-05-17T10:35:53.077Z,62.96
2018-05-17T10:36:53.016Z,62.48
2018-05-17T10:37:52.969Z,62.29
2018-05-17T10:38:52.909Z,62.29
2018-05-17T10:39:52.859Z,62.19
2018-05-17T10:40:52.801Z,62.38
2018-05-17T10:41:52.737Z,62.03
2018-05-17T10:42:52.697Z,62.29
2018-05-17T10:43:52.669Z,62.48
2018-05-17T10:44:52.563Z,62.83
2018-05-17T10:45:52.506Z,63.02
2018-05-17T10:46:52.461Z,63.12
2018-05-17T10:47:52.395Z,63.31
2018-05-17T10:48:52.340Z,63.31
2018-05-17T10:49:52.280Z,63.12
2018-05-17T10:50:52.221Z,63.34
2018-05-17T10:51:52.164Z,63.41
2018-05-17T10:52:52.107Z,63.31
2018-05-17T10:53:52.051Z,63.41
2018-05-17T10:54:51.994Z,63.22
2018-05-17T10:55:51.936Z,63.51
2018-05-17T10:56:51.879Z,63.51
2018-05-17T10:57:51.823Z,63.15
2018-05-17T10:58:51.767Z,62.12
2018-05-17T10:59:51.710Z,61.77
2018-05-17T11:00:51.956Z,61.19
2018-05-17T11:01:52.018Z,61.10
2018-05-17T11:02:51.539Z,61.00
2018-05-17T11:03:51.481Z,60.80
2018-05-17T11:04:51.424Z,61.38
2018-05-17T11:05:51.367Z,61.55
2018-05-17T11:06:51.313Z,61.93
2018-05-17T11:07:51.259Z,61.77
2018-05-17T11:08:51.203Z,61.58
2018-05-17T11:09:51.143Z,61.83
2018-05-17T11:10:51.114Z,61.87
2018-05-17T11:11:51.035Z,61.38
2018-05-17T11:12:50.980Z,60.83
2018-05-17T11:13:50.930Z,60.74
2018-05-17T11:14:50.873Z,60.16
2018-05-17T11:15:50.818Z,60.38
2018-05-17T11:16:50.760Z,60.35
2018-05-17T11:17:50.709Z,60.93
2018-05-17T11:18:50.656Z,61.13
2018-05-17T11:19:50.603Z,61.03
2018-05-17T11:20:50.546Z,60.64
2018-05-17T11:21:50.492Z,60.83
2018-05-17T11:22:50.434Z,60.80
2018-05-17T11:23:50.383Z,60.90
2018-05-17T11:24:50.335Z,60.90
2018-05-17T11:25:50.356Z,60.90
2018-05-17T11:26:50.227Z,60.64
2018-05-17T11:27:50.177Z,60.45
2018-05-17T11:28:50.119Z,59.87
2018-05-17T11:29:50.107Z,60.45
2018-05-17T11:30:50.017Z,60.16
2018-05-17T11:31:49.965Z,60.16
2018-05-17T11:32:49.912Z,60.64
2018-05-17T11:33:49.859Z,60.74
2018-05-17T11:34:49.805Z,60.83
2018-05-17T11:35:49.751Z,60.35
2018-05-17T11:36:49.701Z,59.97
2018-05-17T11:37:49.646Z,60.35
2018-05-17T11:38:49.596Z,60.48
2018-05-17T11:39:49.548Z,60.00
2018-05-17T11:40:49.492Z,59.13
2018-05-17T11:41:49.816Z,59.32
2018-05-17T11:42:49.557Z,59.32
2018-05-17T11:43:49.342Z,59.64
2018-05-17T11:44:49.286Z,59.74
2018-05-17T11:45:49.245Z,58.77
2018-05-17T11:46:49.183Z,58.58
2018-05-17T11:47:49.130Z,58.87
2018-05-17T11:48:49.083Z,58.97
2018-05-17T11:49:49.026Z,58.77
2018-05-17T11:50:48.979Z,59.25
2018-05-17T11:51:48.926Z,58.51
2018-05-17T11:52:48.879Z,58.03
2018-05-17T11:53:48.835Z,57.84
2018-05-17T11:54:48.777Z,57.77
2018-05-17T11:55:48.725Z,57.09
2018-05-17T11:56:48.673Z,56.90
2018-05-17T11:57:48.630Z,56.99
2018-05-17T11:58:48.578Z,56.73
2018-05-17T11:59:48.528Z,56.25
2018-05-17T12:00:48.482Z,56.13
2018-05-17T12:01:48.422Z,56.90
2018-05-17T12:02:48.407Z,56.51
2018-05-17T12:03:48.328Z,56.51
2018-05-17T12:04:48.278Z,56.35
2018-05-17T12:05:48.227Z,55.96
2018-05-17T12:06:48.190Z,55.83
2018-05-17T12:07:48.147Z,55.93
2018-05-17T12:08:48.085Z,55.93
2018-05-17T12:09:48.027Z,55.87
2018-05-17T12:10:47.980Z,55.67
2018-05-17T12:11:47.935Z,55.57
2018-05-17T12:12:47.880Z,55.47
2018-05-17T12:13:47.847Z,55.45
2018-05-17T12:14:47.785Z,55.19
2018-05-17T12:15:47.735Z,54.80
2018-05-17T12:16:47.685Z,54.90
2018-05-17T12:17:47.635Z,54.99
2018-05-17T12:18:47.581Z,55.31
2018-05-17T12:19:47.536Z,54.35
2018-05-17T12:20:47.483Z,53.67
2018-05-17T12:21:47.436Z,53.57
2018-05-17T12:22:47.392Z,53.89
2018-05-17T12:23:47.347Z,53.79
2018-05-17T12:24:47.291Z,52.95
2018-05-17T12:25:47.240Z,52.27
2018-05-17T12:26:47.187Z,53.04
2018-05-17T12:27:47.151Z,52.66
2018-05-17T12:28:47.097Z,52.08
2018-05-17T12:29:47.045Z,52.00
2018-05-17T12:30:46.994Z,51.78
2018-05-17T12:31:47.002Z,51.40
2018-05-17T12:32:46.898Z,51.90
2018-05-17T12:33:46.846Z,51.13
2018-05-17T12:34:46.804Z,51.72
2018-05-17T12:35:46.754Z,51.52
2018-05-17T12:36:46.712Z,51.62
2018-05-17T12:37:46.663Z,51.52
2018-05-17T12:38:46.608Z,50.57
2018-05-17T12:39:46.561Z,49.95
2018-05-17T12:40:46.516Z,48.88
2018-05-17T12:41:46.463Z,48.97
2018-05-17T12:42:46.483Z,49.05
2018-05-17T12:43:46.375Z,49.24
2018-05-17T12:44:46.325Z,49.44
2018-05-17T12:45:46.274Z,49.15
2018-05-17T12:46:46.229Z,48.97
2018-05-17T12:47:46.183Z,48.85
2018-05-17T12:48:46.153Z,49.05
2018-05-17T12:49:46.088Z,49.15
2018-05-17T12:50:46.120Z,49.05
2018-05-17T12:51:45.996Z,49.05
2018-05-17T12:52:45.949Z,48.59
2018-05-17T12:53:45.894Z,47.83
2018-05-17T12:54:45.854Z,47.06
2018-05-17T12:55:45.802Z,46.89
2018-05-17T12:56:45.851Z,46.79
2018-05-17T12:57:45.711Z,47.06
2018-05-17T12:58:45.697Z,47.35
2018-05-17T12:59:45.615Z,47.16
2018-05-17T13:00:45.572Z,46.86
2018-05-17T13:01:45.525Z,46.31
2018-05-17T13:02:45.477Z,46.04
2018-05-17T13:03:45.433Z,45.45
2018-05-17T13:04:45.390Z,46.58
2018-05-17T13:05:45.339Z,46.21
2018-05-17T13:06:45.295Z,45.14
2018-05-17T13:07:45.248Z,45.84
2018-05-17T13:08:45.201Z,45.07
2018-05-17T13:09:45.156Z,44.70
2018-05-17T13:10:45.108Z,45.14
2018-05-17T13:11:45.066Z,44.95
2018-05-17T13:12:45.018Z,45.04
2018-05-17T13:13:44.971Z,44.78
2018-05-17T13:14:44.928Z,44.79